Time;durP1;ratioP1;P1;durP2;ratioP2;P2;SDS_P1;SDS_P2;PMS_P1;PMS_P2;Temp;Humidity;BMP_temperature;BMP_pressure;BME280_temperature;BME280_humidity;BME280_pressure;Samples;Min_cycle;Max_cycle;Signal;HPM_P1;HPM_P2
2021/12/09 00:01:25;;;;;;;7.15;5.13;;;21.10;49.60;;;;;;5024783;28;20561;-60
2021/12/09 00:03:55;;;;;;;7.05;5.28;;;21.10;49.60;;;;;;5026313;28;20909;-56
2021/12/09 00:06:25;;;;;;;6.13;4.80;;;21.10;49.60;;;;;;5023762;28;20052;-61
2021/12/09 00:08:52;;;;;;;6.45;4.57;;;21.00;49.60;;;;;;5032505;28;20086;-61
2021/12/09 00:11:18;;;;;;;7.18;5.28;;;21.00;49.60;;;;;;5027336;28;20029;-61
2021/12/09 00:13:44;;;;;;;6.28;5.07;;;21.00;50.10;;;;;;5024639;28;20064;-62
2021/12/09 00:16:10;;;;;;;5.60;4.55;;;21.00;50.10;;;;;;5027119;28;20033;-59
2021/12/09 00:18:35;;;;;;;6.43;4.88;;;21.00;49.60;;;;;;5025935;28;20125;-61
2021/12/09 00:21:02;;;;;;;6.60;4.63;;;21.00;49.60;;;;;;5027817;28;20486;-62
2021/12/09 00:23:27;;;;;;;6.15;5.03;;;21.00;49.70;;;;;;5024966;28;20036;-57
2021/12/09 00:25:53;;;;;;;6.40;5.05;;;21.00;49.60;;;;;;5026529;28;20042;-60
2021/12/09 00:28:19;;;;;;;6.68;5.35;;;20.90;49.60;;;;;;5029546;28;20727;-58
2021/12/09 00:30:44;;;;;;;5.57;4.30;;;21.00;49.60;;;;;;5025303;28;20051;-61
2021/12/09 00:33:10;;;;;;;6.40;4.95;;;20.90;49.60;;;;;;5029971;28;20078;-59
2021/12/09 00:35:51;;;;;;;6.93;5.10;;;20.90;49.70;;;;;;5023455;28;20629;-59
2021/12/09 00:38:23;;;;;;;5.50;4.47;;;20.90;49.70;;;;;;5027616;28;20422;-58
2021/12/09 00:40:49;;;;;;;5.85;4.55;;;20.90;49.70;;;;;;5021251;28;20033;-59
2021/12/09 00:43:17;;;;;;;6.97;4.70;;;20.90;49.70;;;;;;5027758;28;20029;-57
2021/12/09 00:45:44;;;;;;;6.38;4.60;;;20.90;49.70;;;;;;5024904;28;20059;-59
2021/12/09 00:48:10;;;;;;;6.43;4.68;;;20.90;50.20;;;;;;5029192;28;20041;-60
2021/12/09 00:50:36;;;;;;;6.68;4.72;;;20.90;49.70;;;;;;5025759;28;20390;-60
2021/12/09 00:53:02;;;;;;;5.60;4.28;;;20.80;49.70;;;;;;5028336;28;20029;-61
2021/12/09 00:55:28;;;;;;;5.38;4.25;;;20.80;49.70;;;;;;5024760;28;20029;-61
2021/12/09 00:57:53;;;;;;;5.85;4.35;;;20.80;49.70;;;;;;5026769;28;20502;-61
2021/12/09 01:00:22;;;;;;;4.78;3.83;;;20.80;49.70;;;;;;5021238;28;20410;-59
2021/12/09 01:02:48;;;;;;;6.53;5.00;;;20.80;49.70;;;;;;5026523;28;20113;-60
2021/12/09 01:05:14;;;;;;;6.20;4.75;;;20.80;49.70;;;;;;5025541;28;20025;-59
2021/12/09 01:07:40;;;;;;;5.93;4.63;;;20.80;49.70;;;;;;5028011;28;20292;-60
2021/12/09 01:10:12;;;;;;;5.60;4.18;;;20.80;49.70;;;;;;5022660;28;20128;-60
2021/12/09 01:12:38;;;;;;;6.00;4.38;;;20.80;49.70;;;;;;5023106;28;20057;-61
2021/12/09 01:15:06;;;;;;;5.70;4.45;;;20.80;49.70;;;;;;5025206;28;20374;-58
2021/12/09 01:17:32;;;;;;;5.18;4.00;;;20.80;49.70;;;;;;5023785;28;20036;-57
2021/12/09 01:19:59;;;;;;;5.70;4.18;;;20.80;49.70;;;;;;5024172;28;20022;-58
2021/12/09 01:22:33;;;;;;;5.78;4.40;;;20.80;49.70;;;;;;5023801;28;20025;-60
2021/12/09 01:24:59;;;;;;;6.30;4.30;;;20.80;49.70;;;;;;5024485;28;20033;-60
2021/12/09 01:27:25;;;;;;;5.35;4.30;;;20.70;49.60;;;;;;5025128;28;20505;-61
2021/12/09 01:29:54;;;;;;;5.85;4.32;;;20.70;49.70;;;;;;5026071;28;20331;-60
2021/12/09 01:32:26;;;;;;;5.15;3.83;;;20.70;49.70;;;;;;5024721;28;20127;-60
2021/12/09 01:34:52;;;;;;;5.28;3.83;;;20.70;50.20;;;;;;5028120;28;20044;-61
2021/12/09 01:37:18;;;;;;;5.55;4.28;;;20.70;49.70;;;;;;5022730;28;20637;-60
2021/12/09 01:39:44;;;;;;;5.43;4.28;;;20.70;50.20;;;;;;5024595;28;20636;-57
2021/12/09 01:42:10;;;;;;;5.78;4.38;;;20.70;49.70;;;;;;5022105;28;20581;-60
2021/12/09 01:44:36;;;;;;;5.70;4.30;;;20.70;49.70;;;;;;5023322;28;20036;-61
2021/12/09 01:47:01;;;;;;;4.97;4.00;;;20.70;49.70;;;;;;5024144;28;20111;-61
2021/12/09 01:49:27;;;;;;;5.55;4.30;;;20.70;49.70;;;;;;5025657;28;20108;-59
2021/12/09 01:51:53;;;;;;;4.60;3.50;;;20.70;49.70;;;;;;5024631;28;20386;-57
2021/12/09 01:54:23;;;;;;;5.55;4.13;;;20.70;49.70;;;;;;5025906;28;20041;-59
2021/12/09 01:56:49;;;;;;;5.50;4.28;;;20.70;49.70;;;;;;5022030;28;20040;-61
2021/12/09 01:59:14;;;;;;;5.40;4.10;;;20.70;49.70;;;;;;5026855;28;20025;-60
2021/12/09 02:01:40;;;;;;;5.90;4.40;;;20.60;49.70;;;;;;5020955;28;20041;-61
2021/12/09 02:04:07;;;;;;;5.18;4.10;;;20.60;49.70;;;;;;5022242;28;20033;-59
2021/12/09 02:06:35;;;;;;;5.07;4.10;;;20.60;49.70;;;;;;5023715;28;20052;-62
2021/12/09 02:09:01;;;;;;;5.30;3.90;;;20.60;49.70;;;;;;5027429;28;20031;-61
2021/12/09 02:11:27;;;;;;;4.78;3.80;;;20.60;49.70;;;;;;5025886;28;20052;-59
2021/12/09 02:13:56;;;;;;;4.82;3.75;;;20.60;49.70;;;;;;5025185;28;20061;-61
2021/12/09 02:16:22;;;;;;;4.90;3.97;;;20.60;50.20;;;;;;5023295;28;20477;-60
2021/12/09 02:18:48;;;;;;;5.07;3.90;;;20.60;49.70;;;;;;5023120;28;20018;-60
2021/12/09 02:21:17;;;;;;;4.70;3.83;;;20.60;49.70;;;;;;5020636;28;20025;-59
2021/12/09 02:23:59;;;;;;;4.93;3.80;;;20.60;49.70;;;;;;5027674;28;20064;-60
2021/12/09 02:26:27;;;;;;;5.03;3.90;;;20.50;49.70;;;;;;5024568;28;20049;-61
2021/12/09 02:28:54;;;;;;;5.82;4.05;;;20.60;49.70;;;;;;5019979;28;20029;-61
2021/12/09 02:31:21;;;;;;;5.07;3.58;;;20.60;49.70;;;;;;5023167;28;20041;-59
2021/12/09 02:33:47;;;;;;;4.80;3.70;;;20.50;49.70;;;;;;5025758;28;20033;-61
2021/12/09 02:36:13;;;;;;;5.05;3.83;;;20.50;49.70;;;;;;5024655;28;20044;-60
2021/12/09 02:38:45;;;;;;;5.50;4.10;;;20.50;49.70;;;;;;5023300;28;20029;-56
2021/12/09 02:41:24;;;;;;;5.07;4.00;;;20.50;49.70;;;;;;5024850;28;20033;-59
2021/12/09 02:43:57;;;;;;;5.25;3.83;;;20.50;49.70;;;;;;5022910;28;20029;-60
2021/12/09 02:46:25;;;;;;;4.97;3.90;;;20.50;49.70;;;;;;5022170;28;20099;-57
2021/12/09 02:48:51;;;;;;;4.88;3.60;;;20.50;49.70;;;;;;5024596;28;20111;-60
2021/12/09 02:51:17;;;;;;;4.75;3.65;;;20.50;49.70;;;;;;5024044;28;20072;-59
2021/12/09 02:53:43;;;;;;;5.20;3.85;;;20.50;49.80;;;;;;5024688;28;20053;-61
2021/12/09 02:56:09;;;;;;;4.93;3.60;;;20.50;49.80;;;;;;5024690;28;20036;-60
2021/12/09 02:58:35;;;;;;;4.45;3.50;;;20.40;49.70;;;;;;5023875;28;20116;-61
2021/12/09 03:01:15;;;;;;;5.70;3.70;;;20.50;49.80;;;;;;5016816;28;20447;-59
2021/12/09 03:03:50;;;;;;;4.15;3.25;;;20.40;49.70;;;;;;5023438;28;20045;-59
2021/12/09 03:06:21;;;;;;;4.63;3.78;;;20.40;49.70;;;;;;5025988;28;20045;-58
2021/12/09 03:08:48;;;;;;;4.70;3.65;;;20.40;49.70;;;;;;5024582;28;20025;-59
2021/12/09 03:11:19;;;;;;;4.10;3.22;;;20.40;49.80;;;;;;5023391;28;20401;-60
2021/12/09 03:13:46;;;;;;;4.00;3.17;;;20.40;50.30;;;;;;5021730;28;20020;-62
2021/12/09 03:16:12;;;;;;;4.95;3.75;;;20.40;49.80;;;;;;5018182;28;20088;-61
2021/12/09 03:18:44;;;;;;;4.80;3.47;;;20.40;49.70;;;;;;5023511;28;20064;-60
2021/12/09 03:21:24;;;;;;;4.68;3.33;;;20.40;49.80;;;;;;5023471;28;20075;-55
2021/12/09 03:23:51;;;;;;;4.68;3.38;;;20.40;49.80;;;;;;5022103;28;20219;-60
2021/12/09 03:26:20;;;;;;;4.88;3.38;;;20.40;49.80;;;;;;5023980;28;20129;-59
2021/12/09 03:28:46;;;;;;;4.75;3.90;;;20.40;49.80;;;;;;5022344;28;20091;-62
2021/12/09 03:31:12;;;;;;;4.78;3.70;;;20.40;49.80;;;;;;5019087;28;20493;-62
2021/12/09 03:33:37;;;;;;;4.20;3.17;;;20.40;49.80;;;;;;5027448;28;20132;-58
2021/12/09 03:36:06;;;;;;;4.70;3.47;;;20.40;49.80;;;;;;5026298;28;20072;-59
2021/12/09 03:38:33;;;;;;;4.18;3.30;;;20.40;49.80;;;;;;5030584;28;20022;-60
2021/12/09 03:40:59;;;;;;;3.90;3.30;;;20.40;49.80;;;;;;5027604;28;20504;-62
2021/12/09 03:43:25;;;;;;;4.13;3.20;;;20.30;49.80;;;;;;5026069;28;20489;-59
2021/12/09 03:45:54;;;;;;;4.28;3.22;;;20.30;49.80;;;;;;5026111;28;20028;-59
2021/12/09 03:48:21;;;;;;;;;;;20.30;49.80;;;;;;5030853;28;20077;-61
2021/12/09 03:50:47;;;;;;;4.13;3.17;;;20.30;49.80;;;;;;5027332;28;19919;-58
2021/12/09 03:53:13;;;;;;;4.65;3.40;;;20.30;49.80;;;;;;5026798;28;21850;-60
2021/12/09 03:55:39;;;;;;;4.18;3.10;;;20.30;49.80;;;;;;5027440;28;20033;-60
2021/12/09 03:58:05;;;;;;;3.70;2.90;;;20.30;49.80;;;;;;5027869;28;20485;-60
2021/12/09 04:00:31;;;;;;;4.05;3.13;;;20.30;49.90;;;;;;5025303;28;20022;-60
2021/12/09 04:02:57;;;;;;;4.00;3.20;;;20.30;49.90;;;;;;5028642;28;20033;-58
2021/12/09 04:05:23;;;;;;;4.63;3.35;;;20.30;49.90;;;;;;5027134;28;20102;-60
2021/12/09 04:07:48;;;;;;;4.28;3.35;;;20.30;49.90;;;;;;5028932;28;20034;-60
2021/12/09 04:10:15;;;;;;;3.90;2.90;;;20.30;49.90;;;;;;5025452;28;20148;-62
2021/12/09 04:12:41;;;;;;;4.50;3.40;;;20.20;49.90;;;;;;5026108;28;20033;-57
2021/12/09 04:15:07;;;;;;;4.75;3.30;;;20.20;49.90;;;;;;5027783;28;20037;-61
2021/12/09 04:17:33;;;;;;;4.10;3.00;;;20.20;49.90;;;;;;5021852;28;20060;-60
2021/12/09 04:19:59;;;;;;;4.35;3.10;;;20.20;49.90;;;;;;5027556;28;20501;-61
2021/12/09 04:22:25;;;;;;;4.10;3.15;;;20.20;49.90;;;;;;5020976;28;20079;-61
2021/12/09 04:24:52;;;;;;;4.18;2.88;;;20.20;49.90;;;;;;5025707;28;20056;-61
2021/12/09 04:27:20;;;;;;;3.92;3.08;;;20.20;49.90;;;;;;5027182;28;20072;-62
2021/12/09 04:29:46;;;;;;;4.07;3.20;;;20.20;49.90;;;;;;5022965;28;20628;-60
2021/12/09 04:32:12;;;;;;;4.43;3.38;;;20.20;49.90;;;;;;5022763;28;20213;-58
2021/12/09 04:34:37;;;;;;;3.92;2.90;;;20.20;49.90;;;;;;5022485;28;20034;-62
2021/12/09 04:37:04;;;;;;;4.07;3.10;;;20.20;49.90;;;;;;5027953;28;20437;-59
2021/12/09 04:39:30;;;;;;;4.00;3.00;;;20.20;49.90;;;;;;5025969;28;20036;-61
2021/12/09 04:41:56;;;;;;;3.50;2.80;;;20.20;49.90;;;;;;5016278;28;20033;-59
2021/12/09 04:44:22;;;;;;;4.38;3.10;;;20.20;50.00;;;;;;5027308;28;20021;-59
2021/12/09 04:46:49;;;;;;;3.88;2.95;;;20.20;50.00;;;;;;5028029;28;20061;-60
2021/12/09 04:49:15;;;;;;;3.95;2.92;;;20.10;49.90;;;;;;5024676;28;20515;-59
2021/12/09 04:51:40;;;;;;;4.05;3.08;;;20.10;49.90;;;;;;5026378;28;20580;-61
2021/12/09 04:54:06;;;;;;;4.32;3.33;;;20.10;49.90;;;;;;5027441;28;20168;-58
2021/12/09 04:56:33;;;;;;;3.90;2.78;;;20.10;49.90;;;;;;5025531;28;20052;-59
2021/12/09 04:58:59;;;;;;;3.78;2.85;;;20.10;49.90;;;;;;5024789;28;20346;-59
2021/12/09 05:01:25;;;;;;;3.67;2.88;;;20.10;49.90;;;;;;5015512;28;20038;-58
2021/12/09 05:03:51;;;;;;;3.63;2.75;;;20.10;49.90;;;;;;5025858;28;20098;-57
2021/12/09 05:06:17;;;;;;;3.83;3.10;;;20.10;49.90;;;;;;5023481;28;20033;-58
2021/12/09 05:08:48;;;;;;;3.63;2.72;;;20.10;49.90;;;;;;5027471;28;20033;-60
2021/12/09 05:12:02;;;;;;;3.20;2.60;;;20.10;49.90;;;;;;5025541;28;20150;-62
2021/12/09 05:14:04;;;;;;;3.40;2.75;;;20.10;49.90;;;;;;5025868;28;20041;-60
2021/12/09 05:16:31;;;;;;;4.20;2.92;;;20.10;49.90;;;;;;5019886;28;20044;-60
2021/12/09 05:18:58;;;;;;;3.67;3.03;;;20.10;49.90;;;;;;5027627;28;20033;-58
2021/12/09 05:21:36;;;;;;;3.95;3.00;;;20.10;50.00;;;;;;5023116;28;20033;-57
2021/12/09 05:24:10;;;;;;;4.03;2.95;;;20.00;49.90;;;;;;5020434;28;20033;-61
2021/12/09 05:26:47;;;;;;;3.50;2.60;;;20.00;49.90;;;;;;5022642;28;20029;-61
2021/12/09 05:29:14;;;;;;;3.60;2.83;;;20.10;50.00;;;;;;5022432;28;20456;-59
2021/12/09 05:34:25;;;;;;;4.03;2.78;;;20.00;50.00;;;;;;5020348;28;20645;-60
2021/12/09 05:36:51;;;;;;;3.78;2.90;;;20.00;50.00;;;;;;5020953;28;20041;-59
2021/12/09 05:39:17;;;;;;;3.50;2.80;;;20.00;50.00;;;;;;5022190;28;20065;-60
2021/12/09 05:41:44;;;;;;;3.20;2.53;;;20.00;50.00;;;;;;5016085;28;20464;-58
2021/12/09 05:44:11;;;;;;;3.55;2.70;;;20.00;50.00;;;;;;5026386;28;20034;-59
2021/12/09 05:46:39;;;;;;;3.65;2.38;;;20.00;50.00;;;;;;5012403;28;20547;-61
2021/12/09 05:49:05;;;;;;;3.50;2.80;;;20.00;50.00;;;;;;5021973;28;20044;-60
2021/12/09 05:51:32;;;;;;;4.18;2.45;;;20.00;50.00;;;;;;5023162;28;20037;-60
2021/12/09 05:53:58;;;;;;;3.42;2.50;;;20.00;50.00;;;;;;5024334;28;20075;-60
2021/12/09 05:56:24;;;;;;;4.20;2.90;;;20.00;50.00;;;;;;5020881;28;20026;-60
2021/12/09 05:58:50;;;;;;;3.25;2.50;;;19.90;50.00;;;;;;5026431;28;20033;-60
2021/12/09 06:01:16;;;;;;;3.15;2.22;;;20.00;50.00;;;;;;5015374;28;20179;-59
2021/12/09 06:03:42;;;;;;;3.33;2.38;;;19.90;50.00;;;;;;5027304;28;20649;-60
2021/12/09 06:06:08;;;;;;;3.13;2.50;;;19.90;50.00;;;;;;5023496;28;20033;-59
2021/12/09 06:08:37;;;;;;;3.10;2.67;;;19.90;50.00;;;;;;5024995;28;20025;-61
2021/12/09 06:11:04;;;;;;;3.40;2.60;;;19.90;50.00;;;;;;5022447;28;20048;-59
2021/12/09 06:13:31;;;;;;;3.97;2.50;;;19.90;50.00;;;;;;5025255;28;20053;-59
2021/12/09 06:15:57;;;;;;;3.70;2.50;;;19.90;50.00;;;;;;5015534;28;20083;-60
2021/12/09 06:18:23;;;;;;;3.50;2.47;;;19.90;50.00;;;;;;5024064;28;20026;-63
2021/12/09 06:20:49;;;;;;;3.65;2.70;;;19.90;50.00;;;;;;5023280;28;20064;-60
2021/12/09 06:23:15;;;;;;;3.38;2.28;;;19.90;50.00;;;;;;5024293;28;20061;-59
2021/12/09 06:25:40;;;;;;;3.70;2.65;;;19.90;50.00;;;;;;5020325;28;20037;-63
2021/12/09 06:28:06;;;;;;;2.83;2.00;;;19.90;50.00;;;;;;5021748;28;20044;-60
2021/12/09 06:30:32;;;;;;;4.28;2.95;;;19.90;50.50;;;;;;5015752;28;20030;-59
2021/12/09 06:32:57;;;;;;;3.30;2.65;;;20.00;51.50;;;;;;5023309;28;20398;-62
2021/12/09 06:35:26;;;;;;;3.78;2.67;;;20.10;51.60;;;;;;5017936;28;20037;-59
2021/12/09 06:37:53;;;;;;;3.47;2.42;;;20.40;51.40;;;;;;5025694;28;20030;-60
2021/12/09 06:40:20;;;;;;;3.35;2.38;;;20.60;51.10;;;;;;5019318;28;20204;-63
2021/12/09 06:42:50;;;;;;;3.58;2.42;;;20.80;51.00;;;;;;5016668;28;20028;-60
2021/12/09 06:45:17;;;;;;;2.80;2.08;;;21.00;50.90;;;;;;5011675;28;20030;-60
2021/12/09 06:47:43;;;;;;;2.97;2.28;;;21.10;50.70;;;;;;5022572;28;20021;-63
2021/12/09 06:50:12;;;;;;;2.90;2.20;;;21.30;50.70;;;;;;5023193;28;20107;-58
2021/12/09 06:52:39;;;;;;;2.95;2.17;;;21.40;50.70;;;;;;5024626;28;20045;-60
2021/12/09 06:55:06;;;;;;;2.88;2.20;;;21.60;50.60;;;;;;5022687;28;20037;-60
2021/12/09 06:57:32;;;;;;;2.65;1.80;;;21.70;50.50;;;;;;5029703;28;20029;-62
2021/12/09 06:59:57;;;;;;;1.98;1.42;;;21.80;50.60;;;;;;5020595;28;20087;-60
2021/12/09 07:02:23;;;;;;;2.45;1.63;;;21.70;50.40;;;;;;5022981;28;20106;-61
2021/12/09 07:04:49;;;;;;;2.78;1.80;;;21.60;50.60;;;;;;5024141;28;20056;-60
2021/12/09 07:07:14;;;;;;;3.00;2.08;;;21.60;50.70;;;;;;5028160;28;20036;-62
2021/12/09 07:09:40;;;;;;;2.88;2.03;;;21.60;50.90;;;;;;5026570;28;20108;-60
2021/12/09 07:12:07;;;;;;;2.63;2.00;;;21.70;50.90;;;;;;5028580;28;20038;-63
2021/12/09 07:14:33;;;;;;;2.33;1.55;;;21.90;50.90;;;;;;5022981;28;20108;-60
2021/12/09 07:16:59;;;;;;;2.15;1.48;;;22.10;50.60;;;;;;5025757;28;20061;-61
2021/12/09 07:19:25;;;;;;;2.60;1.70;;;22.20;50.40;;;;;;5025407;28;20445;-60
2021/12/09 07:21:50;;;;;;;2.40;1.65;;;22.40;50.20;;;;;;5031659;28;20021;-59
2021/12/09 07:24:16;;;;;;;2.20;1.58;;;22.50;50.00;;;;;;5021485;28;20473;-60
2021/12/09 07:26:42;;;;;;;1.80;1.30;;;22.70;50.10;;;;;;5027048;28;20044;-62
2021/12/09 07:29:07;;;;;;;2.10;1.38;;;22.70;49.70;;;;;;5027560;28;20444;-61
2021/12/09 07:31:33;;;;;;;2.10;1.40;;;22.70;49.90;;;;;;5024023;28;20033;-61
2021/12/09 07:34:00;;;;;;;1.67;1.20;;;22.60;50.00;;;;;;5028017;28;20121;-61
2021/12/09 07:36:27;;;;;;;1.88;1.30;;;22.60;50.00;;;;;;5030021;28;20098;-59
2021/12/09 07:38:52;;;;;;;1.50;1.08;;;22.60;50.10;;;;;;5030025;28;20028;-62
2021/12/09 07:41:21;;;;;;;1.92;1.25;;;22.60;50.30;;;;;;5024408;28;20026;-60
2021/12/09 07:43:46;;;;;;;1.92;1.30;;;22.60;50.20;;;;;;5025882;28;20029;-59
2021/12/09 07:46:12;;;;;;;1.92;1.40;;;22.60;50.20;;;;;;5025764;28;20029;-63
2021/12/09 07:48:38;;;;;;;2.00;1.40;;;22.60;50.10;;;;;;5027277;28;20064;-61
2021/12/09 07:51:04;;;;;;;2.00;1.23;;;22.60;50.20;;;;;;5027466;28;20033;-61
2021/12/09 07:53:29;;;;;;;2.00;1.30;;;22.60;50.40;;;;;;5028363;28;20055;-59
2021/12/09 07:55:55;;;;;;;2.00;1.20;;;22.60;50.30;;;;;;5027494;28;20110;-61
2021/12/09 07:58:23;;;;;;;1.75;1.20;;;22.60;50.30;;;;;;5026162;28;20046;-59
2021/12/09 08:00:48;;;;;;;1.88;1.33;;;22.60;50.20;;;;;;5023854;28;20474;-63
2021/12/09 08:03:15;;;;;;;1.75;1.20;;;22.70;50.60;;;;;;5026616;28;20104;-63
2021/12/09 08:05:44;;;;;;;2.13;1.45;;;22.70;50.40;;;;;;5028567;28;20101;-60
2021/12/09 08:08:10;;;;;;;1.50;1.10;;;22.70;50.50;;;;;;5026245;28;20143;-59
2021/12/09 08:10:37;;;;;;;1.85;1.20;;;22.70;50.40;;;;;;5027748;28;20033;-60
2021/12/09 08:13:04;;;;;;;1.98;1.20;;;22.70;50.50;;;;;;5027143;28;20058;-61
2021/12/09 08:15:35;;;;;;;2.05;1.23;;;22.70;51.50;;;;;;5018276;28;20092;-61
2021/12/09 08:18:27;;;;;;;1.90;1.40;;;22.80;50.70;;;;;;5023787;28;20033;-60
2021/12/09 08:20:56;;;;;;;1.63;1.20;;;22.80;51.00;;;;;;5020557;28;20069;-63
2021/12/09 08:23:21;;;;;;;;;;;22.80;50.70;;;;;;5024830;28;20049;-63
2021/12/09 08:25:48;;;;;;;1.40;1.00;;;22.80;51.10;;;;;;5024559;28;19955;-62
2021/12/09 08:28:14;;;;;;;1.70;1.27;;;22.90;50.80;;;;;;5030033;28;20025;-61
2021/12/09 08:30:40;;;;;;;1.75;1.20;;;22.90;50.80;;;;;;5019141;28;20038;-60
2021/12/09 08:33:07;;;;;;;1.88;1.30;;;22.80;50.70;;;;;;5026308;28;20063;-60
2021/12/09 08:35:34;;;;;;;1.80;1.20;;;22.90;51.30;;;;;;5024156;28;20064;-60
2021/12/09 08:38:00;;;;;;;1.48;1.00;;;22.90;51.10;;;;;;5028332;28;20052;-59
2021/12/09 08:40:26;;;;;;;1.67;1.20;;;22.90;50.90;;;;;;5023987;28;20690;-63
2021/12/09 08:42:53;;;;;;;1.50;1.15;;;22.90;51.00;;;;;;5025094;28;20032;-60
2021/12/09 08:45:21;;;;;;;1.90;1.20;;;22.90;51.00;;;;;;5021475;28;20040;-61
2021/12/09 08:47:47;;;;;;;1.40;1.00;;;22.90;51.40;;;;;;5028680;28;20044;-59
2021/12/09 08:50:18;;;;;;;1.45;1.10;;;22.90;51.40;;;;;;5025640;28;20068;-59
2021/12/09 08:52:45;;;;;;;1.70;1.20;;;23.00;51.40;;;;;;5026206;28;20028;-63
2021/12/09 08:55:11;;;;;;;1.80;1.27;;;23.00;51.10;;;;;;5026056;28;20033;-59
2021/12/09 08:57:37;;;;;;;1.45;1.05;;;23.00;51.20;;;;;;5024551;28;20025;-62
2021/12/09 09:00:09;;;;;;;1.45;1.00;;;23.00;51.40;;;;;;5018468;28;20026;-60
2021/12/09 09:02:36;;;;;;;1.50;1.15;;;23.00;51.30;;;;;;5024489;28;20034;-59
2021/12/09 09:05:03;;;;;;;1.70;1.20;;;23.10;51.70;;;;;;5025928;28;20049;-59
2021/12/09 09:07:29;;;;;;;1.60;1.02;;;23.10;51.60;;;;;;5023683;28;20136;-60
2021/12/09 09:09:54;;;;;;;1.52;1.08;;;23.10;52.20;;;;;;5022501;28;20132;-60
2021/12/09 09:12:20;;;;;;;1.40;1.00;;;23.10;51.80;;;;;;5023448;28;20552;-63
2021/12/09 09:14:46;;;;;;;2.50;1.15;;;23.10;51.70;;;;;;5022731;28;20115;-60
2021/12/09 09:17:11;;;;;;;2.53;1.10;;;23.10;51.50;;;;;;5027527;28;20043;-61
2021/12/09 09:19:37;;;;;;;1.77;1.10;;;23.10;52.30;;;;;;5026636;28;20027;-60
2021/12/09 09:22:04;;;;;;;1.20;0.98;;;23.10;51.50;;;;;;5023978;28;20053;-59
2021/12/09 09:24:30;;;;;;;1.38;1.10;;;23.10;51.40;;;;;;5024383;28;20442;-59
2021/12/09 09:26:55;;;;;;;1.70;1.10;;;23.20;51.90;;;;;;5026887;28;20045;-63
2021/12/09 09:29:21;;;;;;;1.60;1.20;;;23.20;51.60;;;;;;5022532;28;20057;-61
2021/12/09 09:31:47;;;;;;;1.50;0.98;;;23.20;51.60;;;;;;5019411;28;20041;-60
2021/12/09 09:34:13;;;;;;;1.52;1.00;;;23.20;51.40;;;;;;5021177;28;20105;-60
2021/12/09 09:36:44;;;;;;;1.52;1.10;;;23.20;51.40;;;;;;5027138;28;20129;-63
2021/12/09 09:39:20;;;;;;;1.50;1.00;;;23.20;51.30;;;;;;5027541;28;20083;-60
2021/12/09 09:41:59;;;;;;;1.33;0.93;;;23.20;51.30;;;;;;5021696;28;20073;-60
2021/12/09 09:44:32;;;;;;;1.50;1.10;;;23.20;51.20;;;;;;5024384;28;20033;-62
2021/12/09 09:47:01;;;;;;;1.63;1.10;;;23.30;51.20;;;;;;5025380;28;20057;-59
2021/12/09 09:49:28;;;;;;;1.23;1.00;;;23.20;51.70;;;;;;5030264;28;20051;-60
2021/12/09 09:51:59;;;;;;;1.42;0.90;;;23.30;51.90;;;;;;5023302;28;20750;-61
2021/12/09 09:54:26;;;;;;;1.33;0.90;;;23.30;51.70;;;;;;5022316;28;20037;-63
2021/12/09 09:56:52;;;;;;;1.38;1.00;;;23.30;51.50;;;;;;5027177;28;20041;-62
2021/12/09 09:59:18;;;;;;;0.98;0.88;;;23.30;51.40;;;;;;5024657;28;20454;-62
2021/12/09 10:01:46;;;;;;;1.40;1.00;;;23.30;51.50;;;;;;5018832;28;20107;-61
2021/12/09 10:04:26;;;;;;;1.33;1.00;;;23.40;51.60;;;;;;5024872;28;20036;-61
2021/12/09 10:06:52;;;;;;;1.38;1.10;;;23.30;51.40;;;;;;5022272;28;20095;-60
2021/12/09 10:09:17;;;;;;;1.35;0.93;;;23.40;51.40;;;;;;5025866;28;20541;-61
2021/12/09 10:11:44;;;;;;;1.05;0.85;;;23.40;51.40;;;;;;5027819;28;20032;-60
2021/12/09 10:14:16;;;;;;;1.27;0.93;;;23.40;51.30;;;;;;5025104;28;20029;-60
2021/12/09 10:16:45;;;;;;;1.33;0.90;;;23.40;51.20;;;;;;5024036;28;20051;-60
2021/12/09 10:19:22;;;;;;;1.45;1.00;;;23.40;51.20;;;;;;5023629;28;20524;-62
2021/12/09 10:21:49;;;;;;;1.00;0.90;;;23.40;51.30;;;;;;5027145;28;20039;-59
2021/12/09 10:24:16;;;;;;;1.25;0.90;;;23.40;51.30;;;;;;5024085;28;20405;-60
2021/12/09 10:26:44;;;;;;;1.10;0.88;;;23.40;51.30;;;;;;5025533;28;20122;-61
2021/12/09 10:30:04;;;;;;;2.25;0.90;;;23.40;51.40;;;;;;5021879;28;20030;-62
2021/12/09 10:32:19;;;;;;;0.90;0.80;;;23.50;51.40;;;;;;5018977;28;20461;-60
2021/12/09 10:34:47;;;;;;;1.13;0.88;;;23.50;51.60;;;;;;5021864;28;20053;-63
2021/12/09 10:37:27;;;;;;;1.27;1.00;;;23.50;51.90;;;;;;5028864;28;20029;-63
2021/12/09 10:40:18;;;;;;;1.13;0.80;;;23.50;52.20;;;;;;5024768;28;20029;-60
2021/12/09 10:42:46;;;;;;;0.80;0.80;;;23.50;52.00;;;;;;5023479;28;20026;-60
2021/12/09 10:45:22;;;;;;;1.27;0.90;;;23.60;51.80;;;;;;5027222;28;20033;-59
2021/12/09 10:47:58;;;;;;;0.90;0.80;;;23.60;51.70;;;;;;5026485;28;20018;-60
2021/12/09 10:50:34;;;;;;;1.02;0.80;;;23.60;51.50;;;;;;5029477;28;20513;-59
2021/12/09 10:53:32;;;;;;;0.80;0.80;;;23.60;51.60;;;;;;5030923;28;20108;-59
2021/12/09 10:56:01;;;;;;;0.90;0.80;;;23.60;51.80;;;;;;5017878;28;20123;-63
2021/12/09 10:58:33;;;;;;;0.98;0.80;;;23.60;51.60;;;;;;5023898;28;20067;-59
2021/12/09 11:01:07;;;;;;;0.73;0.73;;;23.60;51.80;;;;;;5025810;28;20579;-60
2021/12/09 11:03:35;;;;;;;1.05;0.85;;;23.60;51.80;;;;;;5032743;28;20446;-59
2021/12/09 11:06:17;;;;;;;1.15;0.70;;;23.60;51.80;;;;;;5028007;28;20033;-60
2021/12/09 11:08:47;;;;;;;1.05;0.80;;;23.60;51.80;;;;;;5023976;28;20053;-59
2021/12/09 11:11:14;;;;;;;;;;;23.60;51.80;;;;;;5021543;28;20040;-62
2021/12/09 11:13:42;;;;;;;1.27;0.93;;;23.70;51.80;;;;;;5027471;28;20007;-65
2021/12/09 11:16:08;;;;;;;1.10;0.70;;;23.70;51.70;;;;;;5024722;28;20025;-60
2021/12/09 11:18:43;;;;;;;1.00;0.80;;;23.70;51.70;;;;;;5023417;28;20044;-62
2021/12/09 11:21:17;;;;;;;1.20;0.90;;;23.70;51.80;;;;;;5022120;28;20088;-61
2021/12/09 11:23:45;;;;;;;0.95;0.80;;;23.70;51.70;;;;;;5029520;28;20033;-59
2021/12/09 11:26:33;;;;;;;1.10;0.80;;;23.70;51.50;;;;;;5026156;28;20128;-59
2021/12/09 11:29:07;;;;;;;1.38;0.90;;;23.70;51.60;;;;;;5024719;28;20496;-62
2021/12/09 11:31:42;;;;;;;1.20;0.93;;;23.70;51.70;;;;;;5019732;28;20038;-59
2021/12/09 11:34:14;;;;;;;2.10;1.30;;;23.70;49.70;;;;;;5024381;28;20033;-60
2021/12/09 11:36:39;;;;;;;2.33;1.60;;;23.70;46.90;;;;;;5027512;28;20021;-61
2021/12/09 11:39:10;;;;;;;2.53;1.70;;;23.60;46.10;;;;;;5028909;28;20040;-59
2021/12/09 11:41:38;;;;;;;2.38;1.75;;;23.50;46.00;;;;;;5027065;28;20389;-60
2021/12/09 11:44:06;;;;;;;1.90;1.38;;;23.50;46.00;;;;;;5022633;28;20493;-60
2021/12/09 11:46:33;;;;;;;2.25;1.40;;;23.40;46.00;;;;;;5023157;28;20033;-60
2021/12/09 11:48:58;;;;;;;2.42;1.58;;;23.40;46.00;;;;;;5028337;28;20025;-59
2021/12/09 11:51:26;;;;;;;2.33;1.45;;;23.40;45.90;;;;;;5027907;28;20029;-60
2021/12/09 11:53:56;;;;;;;2.47;1.58;;;23.40;46.10;;;;;;5028509;28;20041;-59
2021/12/09 11:56:35;;;;;;;2.15;1.40;;;23.30;45.90;;;;;;5021982;28;20033;-59
2021/12/09 12:13:45;;;;;;;2.45;1.58;;;23.20;46.20;;;;;;5024240;28;20055;-60
2021/12/09 12:16:26;;;;;;;2.10;1.30;;;23.20;46.30;;;;;;5023885;28;20037;-58
2021/12/09 12:19:02;;;;;;;4.68;1.50;;;23.20;46.60;;;;;;5025342;28;20140;-63
2021/12/09 12:24:32;;;;;;;2.80;1.55;;;23.10;46.50;;;;;;5024198;28;20125;-60
2021/12/09 12:40:34;;;;;;;1.60;1.10;;;23.10;47.70;;;;;;5019387;28;20029;-61
2021/12/09 12:43:03;;;;;;;1.70;1.17;;;23.10;47.90;;;;;;5024054;28;20033;-60
2021/12/09 12:48:37;;;;;;;2.05;1.20;;;23.10;48.20;;;;;;5020405;28;20112;-60
2021/12/09 12:51:32;;;;;;;3.05;1.30;;;23.20;48.40;;;;;;5022451;28;20061;-60
2021/12/09 12:54:14;;;;;;;1.98;1.30;;;23.20;48.40;;;;;;5021847;28;20033;-60
2021/12/09 12:56:45;;;;;;;1.60;1.00;;;23.20;48.70;;;;;;5021207;28;20140;-62
2021/12/09 12:59:16;;;;;;;1.42;1.00;;;23.20;48.70;;;;;;5026899;28;20072;-59
2021/12/09 13:02:01;;;;;;;1.48;1.02;;;23.20;48.90;;;;;;5017294;28;20044;-59
2021/12/09 13:04:41;;;;;;;1.85;1.20;;;23.20;49.10;;;;;;5022463;28;20038;-61
2021/12/09 13:13:31;;;;;;;1.65;1.25;;;23.30;49.80;;;;;;5020432;28;22022;-59
2021/12/09 13:21:59;;;;;;;1.13;0.90;;;23.40;49.90;;;;;;5020197;28;20064;-61
2021/12/09 13:24:38;;;;;;;1.42;1.00;;;23.40;50.20;;;;;;5022091;28;20033;-62
2021/12/09 13:27:24;;;;;;;1.23;0.93;;;23.50;50.40;;;;;;5020633;28;20033;-61
2021/12/09 13:33:18;;;;;;;2.00;1.20;;;23.50;50.80;;;;;;5019570;28;20049;-59
2021/12/09 13:47:17;;;;;;;0.85;0.77;;;23.60;51.20;;;;;;5020609;28;20710;-59
2021/12/09 13:55:20;;;;;;;0.93;0.80;;;23.70;51.30;;;;;;5017516;28;20378;-61
2021/12/09 13:57:48;;;;;;;1.42;1.00;;;23.70;51.40;;;;;;5024184;28;20033;-59
2021/12/09 14:00:26;;;;;;;1.90;1.30;;;23.70;51.30;;;;;;5019529;28;20113;-59
2021/12/09 14:02:57;;;;;;;2.30;1.50;;;23.60;48.00;;;;;;5021080;28;20814;-62
2021/12/09 14:05:25;;;;;;;2.50;1.40;;;23.60;47.10;;;;;;5016676;28;20034;-58